Time;durP1;ratioP1;P1;durP2;ratioP2;P2;SDS_P1;SDS_P2;PMS_P1;PMS_P2;Temp;Humidity;BMP_temperature;BMP_pressure;BME280_temperature;BME280_humidity;BME280_pressure;Samples;Min_cycle;Max_cycle;Signal;HPM_P1;HPM_P2
2021/12/16 00:34:18;;;;;;;20.92;10.48;;;7.20;99.90;;;;;;4969520;28;20044;-83
2021/12/16 00:36:46;;;;;;;19.52;10.95;;;7.20;99.90;;;;;;4976131;28;20023;-85
2021/12/16 00:39:25;;;;;;;21.25;10.35;;;7.20;99.90;;;;;;4981663;28;20055;-83
2021/12/16 00:41:58;;;;;;;19.80;10.05;;;7.20;99.90;;;;;;4982241;28;20030;-83
2021/12/16 00:49:40;;;;;;;19.75;10.18;;;7.20;99.90;;;;;;4976470;28;20023;-85
2021/12/16 00:55:13;;;;;;;20.55;10.10;;;7.30;99.90;;;;;;4963080;29;20063;-83
2021/12/16 00:57:41;;;;;;;20.98;10.43;;;7.30;99.90;;;;;;4960826;29;20042;-84
2021/12/16 01:00:13;;;;;;;21.60;10.18;;;7.30;99.90;;;;;;4963692;28;20548;-85
2021/12/16 01:36:49;;;;;;;16.60;8.25;;;7.20;99.90;;;;;;4982369;28;20027;-87
2021/12/16 01:50:02;;;;;;;16.95;8.43;;;7.30;99.90;;;;;;4957850;29;20043;-87
2021/12/16 01:55:17;;;;;;;20.35;9.45;;;7.30;99.90;;;;;;4981220;28;20031;-90
2021/12/16 01:57:51;;;;;;;18.17;9.73;;;7.30;99.90;;;;;;4981868;28;20035;-90
2021/12/16 02:00:52;;;;;;;16.10;8.30;;;7.30;99.90;;;;;;4981944;28;20026;-90
2021/12/16 02:03:25;;;;;;;17.00;8.35;;;7.30;99.90;;;;;;4981724;28;20090;-85
2021/12/16 02:08:26;;;;;;;15.60;7.85;;;7.30;99.90;;;;;;4981646;28;20020;-85
2021/12/16 02:11:22;;;;;;;14.75;7.13;;;7.30;99.90;;;;;;4982019;28;20019;-89
2021/12/16 02:52:01;;;;;;;13.05;7.32;;;7.20;99.90;;;;;;4985199;28;20061;-89
2021/12/16 02:55:46;;;;;;;14.90;7.40;;;7.10;99.90;;;;;;5003651;28;20046;-88
2021/12/16 02:59:34;;;;;;;15.38;6.68;;;7.10;99.90;;;;;;4994775;28;20023;-85
2021/12/16 03:07:38;;;;;;;15.77;7.57;;;7.10;99.90;;;;;;4937347;28;20039;-88
2021/12/16 03:18:52;;;;;;;14.90;7.68;;;7.10;99.90;;;;;;4944793;28;20070;-88
2021/12/16 03:37:24;;;;;;;17.13;8.52;;;7.00;99.90;;;;;;4991937;28;20027;-86
2021/12/16 03:40:26;;;;;;;15.82;8.27;;;7.00;99.90;;;;;;5008162;28;20030;-87
2021/12/16 03:47:43;;;;;;;16.80;9.02;;;7.00;99.90;;;;;;4961238;28;20606;-88
2021/12/16 03:54:45;;;;;;;19.13;9.35;;;7.00;99.90;;;;;;4929523;29;20055;-87
2021/12/16 03:58:48;;;;;;;14.73;8.10;;;7.00;99.90;;;;;;4974159;28;20034;-86
2021/12/16 04:09:17;;;;;;;17.20;9.20;;;7.10;99.90;;;;;;4908661;29;20037;-85
2021/12/16 04:13:07;;;;;;;;;;;;;;;;;;;;;
2021/12/16 04:20:42;;;;;;;15.95;7.90;;;7.10;99.90;;;;;;4903365;29;20040;-85
2021/12/16 04:28:28;;;;;;;;;;;;;;;;;;;;;
2021/12/16 04:39:06;;;;;;;;;;;;;;;;;;;;;
2021/12/16 04:50:18;;;;;;;;;;;;;;;;;;;;;
2021/12/16 04:53:42;;;;;;;19.38;10.27;;;7.00;99.90;;;;;;4990992;28;20046;-85
2021/12/16 05:01:38;;;;;;;20.45;10.32;;;6.90;99.90;;;;;;4861739;29;20038;-85
2021/12/16 05:05:03;;;;;;;20.17;10.15;;;6.80;99.90;;;;;;4870835;29;20690;-89
2021/12/16 05:08:43;;;;;;;18.73;10.15;;;6.90;99.90;;;;;;4911558;29;20040;-88
2021/12/16 05:20:08;;;;;;;17.95;9.55;;;6.90;99.90;;;;;;4923793;28;20106;-88
2021/12/16 05:38:58;;;;;;;16.17;8.43;;;7.00;99.90;;;;;;4962095;29;20050;-88
2021/12/16 05:43:05;;;;;;;;;;;;;;;;;;;;;
2021/12/16 05:54:07;;;;;;;12.90;7.43;;;6.90;99.90;;;;;;4860681;29;20052;-88
2021/12/16 05:57:31;;;;;;;14.43;7.68;;;6.90;99.90;;;;;;4934006;29;20040;-87
2021/12/16 06:00:45;;;;;;;14.40;8.20;;;6.80;99.90;;;;;;4941798;29;20047;-88
2021/12/16 06:03:55;;;;;;;;;;;;;;;;;;;;;
2021/12/16 06:29:46;;;;;;;21.30;9.82;;;6.70;99.90;;;;;;4928496;29;20118;-87
2021/12/16 06:33:19;;;;;;;;;;;;;;;;;;;;;
2021/12/16 06:47:50;;;;;;;14.80;6.95;;;6.60;99.90;;;;;;5074477;23;20058;-88
2021/12/16 06:51:32;;;;;;;;;;;;;;;;;;;;;
2021/12/16 06:59:04;;;;;;;13.50;7.07;;;6.60;99.90;;;;;;4945660;29;20544;-87
2021/12/16 07:02:31;;;;;;;12.45;6.88;;;6.70;99.90;;;;;;4873447;29;20320;-89
2021/12/16 07:05:21;;;;;;;14.23;7.60;;;6.70;99.90;;;;;;4964429;28;20073;-86
2021/12/16 07:08:12;;;;;;;23.42;8.10;;;6.70;99.90;;;;;;4995159;28;20034;-88
2021/12/16 07:10:58;;;;;;;14.57;8.25;;;6.70;99.90;;;;;;5009169;28;20053;-85
2021/12/16 07:13:44;;;;;;;15.95;8.50;;;6.70;99.90;;;;;;5018508;28;20026;-86
2021/12/16 07:16:12;;;;;;;13.23;7.57;;;6.70;99.90;;;;;;5008361;28;20027;-85
2021/12/16 07:18:48;;;;;;;15.77;8.48;;;6.70;99.90;;;;;;4999413;28;20241;-87
2021/12/16 07:21:14;;;;;;;16.52;8.80;;;6.70;99.90;;;;;;4999940;28;20015;-86
2021/12/16 07:23:40;;;;;;;17.70;8.23;;;6.70;99.90;;;;;;4982894;28;20019;-84
2021/12/16 07:26:06;;;;;;;19.63;9.52;;;6.70;99.90;;;;;;5003668;23;20094;-83
2021/12/16 07:28:32;;;;;;;17.30;9.52;;;6.70;99.90;;;;;;4999665;28;20026;-83
2021/12/16 07:30:59;;;;;;;19.92;10.00;;;6.70;99.90;;;;;;4998947;28;20038;-83
2021/12/16 07:33:25;;;;;;;17.98;9.88;;;6.70;99.90;;;;;;5002861;28;20100;-82
2021/12/16 07:35:53;;;;;;;21.02;9.82;;;6.70;99.90;;;;;;4986844;28;20059;-82
2021/12/16 07:38:20;;;;;;;20.98;10.20;;;6.70;99.90;;;;;;4978550;28;20035;-84
2021/12/16 07:40:48;;;;;;;20.00;10.98;;;6.60;99.90;;;;;;4979341;28;20099;-83
2021/12/16 07:43:27;;;;;;;22.48;10.57;;;6.60;99.90;;;;;;4973314;28;20083;-82
2021/12/16 07:45:55;;;;;;;23.60;11.30;;;6.50;99.90;;;;;;4980821;28;20043;-82
2021/12/16 07:48:24;;;;;;;20.20;10.68;;;6.50;99.90;;;;;;4970889;28;20053;-81
2021/12/16 07:50:54;;;;;;;21.83;10.75;;;6.50;99.90;;;;;;4973991;28;20029;-83
2021/12/16 07:53:20;;;;;;;23.80;11.15;;;6.40;99.90;;;;;;4967685;29;20039;-82
2021/12/16 07:55:47;;;;;;;21.02;10.45;;;6.40;99.90;;;;;;4980374;28;20142;-85
2021/12/16 07:58:14;;;;;;;17.08;9.18;;;6.50;99.90;;;;;;4960366;28;20055;-85
2021/12/16 08:00:41;;;;;;;16.90;9.88;;;6.50;99.90;;;;;;4975286;28;20031;-84
2021/12/16 08:03:11;;;;;;;17.23;9.55;;;6.50;99.90;;;;;;4977551;28;20043;-84
2021/12/16 08:05:40;;;;;;;18.42;9.68;;;6.60;99.90;;;;;;4965394;29;20031;-83
2021/12/16 08:08:08;;;;;;;22.60;10.10;;;6.60;99.90;;;;;;4963794;28;20020;-85
2021/12/16 08:10:35;;;;;;;17.08;9.43;;;6.70;99.90;;;;;;4959331;29;20145;-84
2021/12/16 08:13:01;;;;;;;18.20;9.52;;;6.70;99.90;;;;;;4965566;28;20031;-83
2021/12/16 08:15:27;;;;;;;20.98;10.35;;;6.80;99.90;;;;;;4967575;28;20038;-83
2021/12/16 08:17:55;;;;;;;17.58;9.90;;;6.80;99.90;;;;;;4968271;28;20031;-83
2021/12/16 08:20:22;;;;;;;15.98;9.13;;;6.90;99.90;;;;;;4965177;28;20075;-84
2021/12/16 08:22:52;;;;;;;17.23;9.70;;;6.90;99.90;;;;;;4964537;28;20040;-83
2021/12/16 08:25:21;;;;;;;19.48;9.77;;;6.90;99.90;;;;;;4961860;29;20055;-83
2021/12/16 08:27:48;;;;;;;14.82;8.65;;;6.70;99.90;;;;;;4970527;28;20046;-84
2021/12/16 08:30:17;;;;;;;16.92;9.20;;;6.80;99.90;;;;;;4977233;28;20028;-84
2021/12/16 08:32:44;;;;;;;17.40;9.23;;;6.70;99.90;;;;;;4973230;28;20027;-84
2021/12/16 08:35:12;;;;;;;17.92;8.88;;;6.80;99.90;;;;;;4987794;28;20044;-83
2021/12/16 08:37:39;;;;;;;17.13;8.65;;;6.70;99.90;;;;;;4971437;28;20056;-84
2021/12/16 08:40:10;;;;;;;15.27;7.90;;;6.80;99.90;;;;;;4962685;29;20023;-84
2021/12/16 08:42:36;;;;;;;15.43;7.85;;;6.90;99.90;;;;;;4993938;28;20034;-84
2021/12/16 08:45:03;;;;;;;14.95;7.50;;;6.90;99.90;;;;;;4978572;28;20031;-86
2021/12/16 08:47:31;;;;;;;15.80;7.50;;;7.00;99.90;;;;;;4977828;28;20091;-85
2021/12/16 08:49:57;;;;;;;13.80;7.40;;;7.10;99.90;;;;;;4977815;28;20019;-84
2021/12/16 08:52:23;;;;;;;12.73;6.82;;;7.20;99.90;;;;;;4978501;28;20034;-85
2021/12/16 08:54:49;;;;;;;16.67;7.25;;;7.20;99.90;;;;;;4988095;28;20011;-86
2021/12/16 08:57:16;;;;;;;13.85;6.70;;;7.20;99.90;;;;;;4971149;28;20028;-84
2021/12/16 08:59:43;;;;;;;16.25;6.82;;;7.20;99.90;;;;;;4970789;28;20012;-85
2021/12/16 09:02:10;;;;;;;13.27;6.03;;;7.30;99.90;;;;;;4970216;28;20044;-84
2021/12/16 09:04:37;;;;;;;7.68;4.88;;;7.70;99.90;;;;;;4975203;28;20035;-86
2021/12/16 09:07:08;;;;;;;9.20;4.85;;;8.50;99.90;;;;;;4971819;28;20046;-85
2021/12/16 09:09:37;;;;;;;9.73;4.78;;;9.40;99.90;;;;;;4977355;28;20050;-86
2021/12/16 09:12:13;;;;;;;8.55;4.50;;;9.30;99.90;;;;;;4960571;29;20210;-86
2021/12/16 09:14:41;;;;;;;7.53;4.82;;;9.00;99.90;;;;;;4964265;29;20037;-87
2021/12/16 09:17:12;;;;;;;8.18;4.45;;;8.80;99.90;;;;;;4970425;28;20088;-85
2021/12/16 09:19:42;;;;;;;10.02;4.93;;;8.50;99.90;;;;;;4972299;29;20055;-85
2021/12/16 09:22:10;;;;;;;8.07;5.05;;;8.20;99.90;;;;;;4975593;28;20019;-85
2021/12/16 09:24:37;;;;;;;7.45;4.30;;;8.00;99.90;;;;;;4983400;28;20027;-84
2021/12/16 09:27:03;;;;;;;8.93;4.30;;;7.90;99.90;;;;;;4977467;28;20016;-85
2021/12/16 09:29:29;;;;;;;8.18;4.72;;;7.80;99.90;;;;;;4967126;28;20145;-86
2021/12/16 09:31:55;;;;;;;9.98;4.70;;;7.70;99.90;;;;;;4963914;28;20055;-85
2021/12/16 09:34:20;;;;;;;7.47;4.47;;;7.70;99.90;;;;;;4963764;29;20419;-86
2021/12/16 09:36:46;;;;;;;7.35;4.20;;;7.70;99.90;;;;;;4954843;28;20035;-85
2021/12/16 09:39:16;;;;;;;7.68;4.53;;;7.70;99.90;;;;;;4964591;28;20123;-85
2021/12/16 09:41:46;;;;;;;6.45;4.18;;;7.80;99.90;;;;;;4964079;29;20032;-85
2021/12/16 09:44:13;;;;;;;7.60;4.05;;;7.80;99.90;;;;;;4956871;28;20091;-86
2021/12/16 09:46:40;;;;;;;8.82;3.97;;;7.70;99.90;;;;;;4951808;28;20137;-86
2021/12/16 09:49:07;;;;;;;6.80;3.85;;;7.80;99.90;;;;;;4958539;28;20031;-83
2021/12/16 09:51:37;;;;;;;6.88;3.80;;;7.90;99.90;;;;;;4958453;29;20027;-85
2021/12/16 09:54:07;;;;;;;9.15;3.30;;;8.00;99.90;;;;;;4961371;29;20024;-84
2021/12/16 09:56:35;;;;;;;7.13;3.40;;;8.10;99.90;;;;;;4960295;28;20027;-86
2021/12/16 09:59:03;;;;;;;8.50;3.90;;;8.20;99.90;;;;;;4953279;28;20086;-85
2021/12/16 10:01:30;;;;;;;9.82;3.75;;;8.10;99.90;;;;;;4960270;28;20079;-85
2021/12/16 10:04:03;;;;;;;6.30;3.55;;;8.20;99.90;;;;;;4950520;29;20043;-85
2021/12/16 10:06:35;;;;;;;9.75;3.78;;;8.20;99.90;;;;;;4966239;29;20086;-85
2021/12/16 10:09:05;;;;;;;7.47;3.92;;;8.10;99.90;;;;;;4972940;29;20035;-85
2021/12/16 10:11:33;;;;;;;9.18;3.83;;;8.00;99.90;;;;;;4977668;28;20018;-85
2021/12/16 10:19:31;;;;;;;11.73;4.25;;;7.80;99.90;;;;;;4984336;28;20082;-85
2021/12/16 10:22:22;;;;;;;8.55;4.18;;;7.60;99.90;;;;;;4986529;28;20035;-84
2021/12/16 10:24:50;;;;;;;8.50;4.30;;;7.50;99.90;;;;;;4973478;28;20039;-85
2021/12/16 10:27:20;;;;;;;9.50;4.40;;;7.40;99.90;;;;;;4989469;28;20023;-84
2021/12/16 10:29:54;;;;;;;9.18;4.93;;;7.40;99.90;;;;;;4948284;29;20057;-86
2021/12/16 10:32:41;;;;;;;16.63;3.80;;;7.30;99.90;;;;;;4959007;29;20058;-86
2021/12/16 10:35:12;;;;;;;6.50;4.32;;;7.30;99.90;;;;;;4961765;28;20046;-85
2021/12/16 10:37:43;;;;;;;13.20;4.95;;;7.30;99.90;;;;;;4970293;28;20498;-86
2021/12/16 10:40:35;;;;;;;12.10;4.63;;;7.30;99.90;;;;;;4952940;28;20103;-87
2021/12/16 10:43:06;;;;;;;11.15;4.82;;;7.30;99.90;;;;;;4949870;29;20028;-85
2021/12/16 10:45:40;;;;;;;9.10;4.95;;;7.30;99.90;;;;;;4980786;28;20062;-86
2021/12/16 10:48:15;;;;;;;9.93;5.20;;;7.30;99.90;;;;;;4961410;28;20160;-88
2021/12/16 10:51:03;;;;;;;8.27;4.95;;;7.30;99.90;;;;;;4963858;29;20054;-84
2021/12/16 10:54:12;;;;;;;12.95;5.18;;;7.20;99.90;;;;;;4974191;29;20099;-86
2021/12/16 10:56:54;;;;;;;8.63;5.22;;;7.20;99.90;;;;;;4965806;28;20027;-85
2021/12/16 10:59:22;;;;;;;22.17;6.38;;;7.20;99.90;;;;;;4958731;29;20412;-85
2021/12/16 11:01:51;;;;;;;10.00;5.35;;;7.20;99.90;;;;;;4974202;28;20118;-86
2021/12/16 11:04:22;;;;;;;8.75;5.10;;;7.20;99.90;;;;;;4969704;29;20035;-87
2021/12/16 11:07:09;;;;;;;9.55;5.47;;;7.10;99.90;;;;;;4969469;28;20047;-83
2021/12/16 11:09:40;;;;;;;10.30;5.28;;;7.20;99.90;;;;;;4972249;28;20031;-85
2021/12/16 11:12:17;;;;;;;9.43;4.25;;;7.20;99.90;;;;;;4959627;28;20043;-87
2021/12/16 11:14:50;;;;;;;18.35;9.15;;;7.20;99.90;;;;;;4975891;28;20031;-86
2021/12/16 11:17:21;;;;;;;8.77;5.55;;;7.20;99.90;;;;;;4976148;28;20019;-86
2021/12/16 11:19:54;;;;;;;10.98;5.10;;;7.30;99.90;;;;;;4966178;28;20031;-85
2021/12/16 11:22:24;;;;;;;7.57;4.97;;;7.30;99.90;;;;;;4956351;29;20031;-84
2021/12/16 11:24:52;;;;;;;9.27;4.38;;;7.30;99.90;;;;;;4968460;28;20058;-85
2021/12/16 11:27:34;;;;;;;8.48;4.93;;;7.30;99.90;;;;;;4973286;28;20038;-85
2021/12/16 11:30:22;;;;;;;7.93;4.40;;;7.30;99.90;;;;;;4957797;28;20118;-85
2021/12/16 11:32:51;;;;;;;7.57;3.95;;;7.90;99.90;;;;;;4964331;28;20080;-84
2021/12/16 11:35:31;;;;;;;8.80;4.13;;;9.10;99.90;;;;;;4961028;28;20026;-86
2021/12/16 11:38:04;;;;;;;8.85;4.18;;;9.90;99.90;;;;;;4962509;28;20042;-83
2021/12/16 11:40:54;;;;;;;9.05;4.13;;;9.90;99.90;;;;;;4969287;29;20035;-85
2021/12/16 11:43:38;;;;;;;8.43;4.38;;;9.50;99.90;;;;;;4969242;29;20502;-85
2021/12/16 11:46:07;;;;;;;7.55;4.57;;;9.00;99.90;;;;;;4966045;28;20037;-84
2021/12/16 11:48:36;;;;;;;7.88;4.28;;;8.70;99.90;;;;;;4961792;29;20027;-86
2021/12/16 11:51:09;;;;;;;8.50;4.53;;;8.50;99.90;;;;;;4966190;28;20129;-84
2021/12/16 11:53:51;;;;;;;13.52;5.30;;;8.50;99.90;;;;;;4970946;28;20036;-83
2021/12/16 11:56:18;;;;;;;14.52;4.97;;;8.60;99.90;;;;;;4965605;28;20122;-84
2021/12/16 11:58:46;;;;;;;7.30;4.13;;;8.50;99.90;;;;;;4965705;28;20058;-82
2021/12/16 12:01:19;;;;;;;13.65;4.57;;;8.20;99.90;;;;;;4966185;28;20082;-82
2021/12/16 12:03:46;;;;;;;13.80;4.72;;;8.20;99.90;;;;;;4960519;28;20050;-84
2021/12/16 12:06:22;;;;;;;9.27;5.30;;;8.20;99.90;;;;;;4954862;29;20028;-86
2021/12/16 12:08:50;;;;;;;13.43;5.40;;;8.30;99.90;;;;;;4950906;28;20403;-85
2021/12/16 12:11:18;;;;;;;11.43;4.88;;;8.40;99.90;;;;;;4955256;29;20050;-85
2021/12/16 12:13:48;;;;;;;8.75;5.05;;;8.40;99.90;;;;;;4960705;28;20036;-85
2021/12/16 12:16:33;;;;;;;10.90;5.35;;;8.40;99.90;;;;;;4954453;29;20028;-84
2021/12/16 12:19:16;;;;;;;9.00;5.15;;;8.30;99.90;;;;;;4984490;28;20290;-84
2021/12/16 12:21:50;;;;;;;10.80;5.15;;;8.40;99.90;;;;;;4956582;29;20061;-84
2021/12/16 12:24:24;;;;;;;9.10;5.18;;;8.40;99.90;;;;;;4957172;28;20023;-85
2021/12/16 12:26:57;;;;;;;12.85;4.88;;;8.40;99.90;;;;;;4955394;28;20031;-84
2021/12/16 12:29:28;;;;;;;10.98;4.93;;;8.30;99.90;;;;;;4974646;28;20063;-85
2021/12/16 12:31:59;;;;;;;8.50;4.70;;;8.30;99.90;;;;;;4960158;29;20054;-84
2021/12/16 12:34:26;;;;;;;7.45;4.50;;;8.20;99.90;;;;;;4975912;28;20027;-84
2021/12/16 12:36:55;;;;;;;10.30;4.75;;;8.20;99.90;;;;;;4979179;28;20023;-84
2021/12/16 12:39:24;;;;;;;8.45;5.18;;;8.20;99.90;;;;;;4976309;28;20054;-84
2021/12/16 12:41:52;;;;;;;9.52;5.07;;;8.10;99.90;;;;;;4967953;28;20052;-83
2021/12/16 12:44:18;;;;;;;9.05;5.60;;;8.10;99.90;;;;;;4970933;28;20272;-84
2021/12/16 12:46:45;;;;;;;9.40;6.00;;;8.10;99.90;;;;;;4985455;28;20023;-84
2021/12/16 12:49:15;;;;;;;11.68;5.80;;;8.10;99.90;;;;;;4971739;28;20565;-86
2021/12/16 12:51:46;;;;;;;11.05;6.07;;;8.10;99.90;;;;;;4957719;28;20055;-85
2021/12/16 12:54:22;;;;;;;14.57;6.95;;;8.00;99.90;;;;;;4969634;28;20035;-85
2021/12/16 12:56:50;;;;;;;10.63;6.03;;;8.10;99.90;;;;;;4959719;28;20208;-85
2021/12/16 12:59:17;;;;;;;10.10;6.05;;;8.00;99.90;;;;;;4957721;28;20117;-85
2021/12/16 13:01:49;;;;;;;14.52;6.03;;;8.10;99.90;;;;;;4964109;28;20042;-85
2021/12/16 13:04:31;;;;;;;11.48;6.20;;;8.10;99.90;;;;;;4960932;28;20027;-86
2021/12/16 13:07:04;;;;;;;12.43;6.47;;;8.10;99.90;;;;;;4961282;29;20020;-85
2021/12/16 13:09:39;;;;;;;14.30;6.88;;;8.10;99.90;;;;;;4956855;28;20610;-85
2021/12/16 13:12:31;;;;;;;11.65;7.00;;;8.10;99.90;;;;;;4962465;28;20643;-84
2021/12/16 13:15:07;;;;;;;18.60;8.00;;;8.10;99.90;;;;;;4950413;29;20028;-85
2021/12/16 13:35:50;;;;;;;13.88;8.65;;;8.00;99.90;;;;;;4955128;28;20095;-93
2021/12/16 13:38:48;;;;;;;24.25;12.23;;;8.00;99.90;;;;;;4984497;28;20082;-89
2021/12/16 13:41:30;;;;;;;22.67;10.75;;;7.90;99.90;;;;;;4973763;28;20099;-91
2021/12/16 13:44:12;;;;;;;15.70;8.70;;;7.90;99.90;;;;;;4976725;28;20077;-90
2021/12/16 13:47:39;;;;;;;20.45;9.85;;;7.90;99.90;;;;;;4967634;29;20039;-91
2021/12/16 14:02:15;;;;;;;16.58;9.73;;;7.60;99.90;;;;;;5018111;28;20027;-92
2021/12/16 14:10:08;;;;;;;17.92;10.63;;;7.50;99.90;;;;;;5000269;28;20027;-90
2021/12/16 14:23:50;;;;;;;22.70;10.98;;;7.50;99.90;;;;;;4999104;28;20034;-90
2021/12/16 14:26:38;;;;;;;;;;;7.50;99.90;;;;;;4998814;28;20086;-91
2021/12/16 14:37:28;;;;;;;21.98;11.63;;;7.40;99.90;;;;;;4999120;28;20042;-89
2021/12/16 14:43:18;;;;;;;19.00;11.40;;;7.40;99.90;;;;;;5019174;28;20054;-88
2021/12/16 14:45:53;;;;;;;23.35;11.25;;;7.30;99.90;;;;;;5019498;28;20106;-89
2021/12/16 14:48:25;;;;;;;18.05;10.20;;;7.30;99.90;;;;;;5019748;28;20129;-90
2021/12/16 14:51:05;;;;;;;16.25;9.65;;;7.20;99.90;;;;;;5008212;28;20110;-88
2021/12/16 14:56:21;;;;;;;18.92;10.30;;;7.10;99.90;;;;;;5009527;23;20035;-90
2021/12/16 14:59:20;;;;;;;19.52;9.77;;;7.10;99.90;;;;;;4977750;28;20043;-89
2021/12/16 15:01:56;;;;;;;17.08;9.82;;;7.20;99.90;;;;;;4959875;28;20023;-88
2021/12/16 15:04:30;;;;;;;18.35;9.93;;;7.20;99.90;;;;;;4980418;28;20023;-89
2021/12/16 15:07:49;;;;;;;23.00;10.32;;;7.20;99.90;;;;;;4979913;28;20077;-88
2021/12/16 15:13:02;;;;;;;17.88;10.23;;;7.20;99.90;;;;;;5362083;23;20054;-90
2021/12/16 15:15:40;;;;;;;18.17;10.20;;;7.30;99.90;;;;;;5009065;28;20050;-91
2021/12/16 15:37:54;;;;;;;16.63;8.93;;;7.10;99.90;;;;;;5008107;28;20034;-88
2021/12/16 15:43:11;;;;;;;17.73;8.88;;;7.10;99.90;;;;;;5008305;28;20049;-88
2021/12/16 15:45:44;;;;;;;17.98;9.00;;;7.10;99.90;;;;;;5004772;28;20330;-87
2021/12/16 15:48:29;;;;;;;16.58;8.77;;;7.10;99.90;;;;;;5009613;28;20034;-89
2021/12/16 15:51:08;;;;;;;16.80;9.13;;;7.00;99.90;;;;;;4997764;28;20042;-87
2021/12/16 15:58:57;;;;;;;17.13;9.10;;;7.00;99.90;;;;;;5038935;23;20065;-90
2021/12/16 16:01:31;;;;;;;16.52;8.77;;;6.90;99.90;;;;;;5001968;28;20115;-93
2021/12/16 16:04:00;;;;;;;17.67;9.30;;;7.00;99.90;;;;;;5018934;28;20038;-91
2021/12/16 16:06:32;;;;;;;15.48;8.65;;;7.00;99.90;;;;;;4982189;28;20018;-90
2021/12/16 16:09:10;;;;;;;16.52;9.30;;;7.00;99.90;;;;;;5180980;23;20049;-89
2021/12/16 16:12:04;;;;;;;16.35;9.20;;;6.90;99.90;;;;;;4962211;28;20035;-87
2021/12/16 16:14:32;;;;;;;17.23;9.45;;;6.90;99.90;;;;;;4962885;28;20053;-91
2021/12/16 16:17:14;;;;;;;16.55;9.50;;;6.90;99.90;;;;;;4994110;28;20038;-92
2021/12/16 16:22:33;;;;;;;18.10;9.35;;;6.90;99.90;;;;;;3141624;26;20050;-93
2021/12/16 16:25:52;;;;;;;14.95;8.15;;;6.80;99.90;;;;;;4981674;28;20052;-88
2021/12/16 16:33:44;;;;;;;16.25;7.70;;;6.80;99.90;;;;;;5858486;23;20042;-91
2021/12/16 16:36:25;;;;;;;16.02;7.78;;;6.70;99.90;;;;;;4972658;28;20047;-90
2021/12/16 16:39:07;;;;;;;12.20;7.75;;;6.80;99.90;;;;;;4965991;28;20032;-90
2021/12/16 16:41:54;;;;;;;11.98;7.47;;;6.80;99.90;;;;;;4957976;28;20043;-89
2021/12/16 16:44:23;;;;;;;11.57;7.03;;;6.80;99.90;;;;;;4951124;28;20050;-91
2021/12/16 16:47:08;;;;;;;12.10;6.95;;;6.80;99.90;;;;;;4971957;28;20055;-91
2021/12/16 16:50:19;;;;;;;14.48;6.97;;;6.80;99.90;;;;;;4974858;28;20059;-91
2021/12/16 16:55:28;;;;;;;12.10;7.25;;;6.80;99.90;;;;;;4665309;26;20058;-89
2021/12/16 16:58:15;;;;;;;11.90;6.60;;;6.80;99.90;;;;;;4998691;28;20049;-85
2021/12/16 17:00:50;;;;;;;11.20;7.30;;;6.80;99.90;;;;;;4997643;28;20049;-86
2021/12/16 17:03:23;;;;;;;13.98;6.80;;;6.80;99.90;;;;;;5013019;28;20058;-86
2021/12/16 17:05:57;;;;;;;9.55;5.85;;;6.80;99.90;;;;;;5008019;28;20053;-87
2021/12/16 17:08:28;;;;;;;9.25;5.40;;;6.90;99.90;;;;;;4992814;28;20041;-90
2021/12/16 17:11:05;;;;;;;9.15;5.68;;;6.90;99.90;;;;;;5009842;28;20075;-87
2021/12/16 17:21:39;;;;;;;7.32;5.00;;;7.00;99.90;;;;;;5211562;23;20058;-86
2021/12/16 17:24:13;;;;;;;7.18;4.53;;;7.00;99.90;;;;;;5037685;28;20069;-88
2021/12/16 17:26:50;;;;;;;9.15;5.03;;;7.00;99.90;;;;;;5050607;23;20059;-88
2021/12/16 17:29:24;;;;;;;6.47;4.22;;;7.10;99.90;;;;;;5001605;28;20178;-87
2021/12/16 17:32:04;;;;;;;6.50;4.38;;;7.10;99.90;;;;;;5000927;28;20015;-89
2021/12/16 17:34:51;;;;;;;9.60;4.55;;;7.10;99.90;;;;;;4984801;28;20023;-90
2021/12/16 17:37:27;;;;;;;5.82;3.97;;;7.00;99.90;;;;;;4965943;28;20066;-88
2021/12/16 17:40:02;;;;;;;5.68;3.92;;;7.10;99.90;;;;;;5053094;23;20053;-90
2021/12/16 17:42:39;;;;;;;6.38;3.90;;;7.00;99.90;;;;;;5040632;28;20058;-91
2021/12/16 17:48:31;;;;;;;5.43;3.28;;;7.10;99.90;;;;;;5015658;28;20062;-90
2021/12/16 17:51:08;;;;;;;6.55;3.63;;;7.00;99.90;;;;;;4999950;28;20037;-92
2021/12/16 17:53:40;;;;;;;;;;;7.00;99.90;;;;;;4998758;28;20096;-91
2021/12/16 17:56:12;;;;;;;6.68;4.18;;;7.10;99.90;;;;;;5016016;28;19913;-91
2021/12/16 17:58:42;;;;;;;5.30;3.53;;;7.10;99.90;;;;;;5015509;28;20034;-89
2021/12/16 18:01:23;;;;;;;4.88;3.53;;;7.10;99.90;;;;;;5017045;28;20057;-89
2021/12/16 18:04:19;;;;;;;5.40;3.45;;;7.10;99.90;;;;;;5124003;23;21051;-88
2021/12/16 18:07:07;;;;;;;6.15;3.20;;;7.10;99.90;;;;;;5032759;28;20027;-88
2021/12/16 18:09:43;;;;;;;5.05;3.22;;;7.20;99.90;;;;;;5020158;28;20015;-88
2021/12/16 18:12:22;;;;;;;7.53;3.20;;;7.20;99.90;;;;;;5020374;28;20038;-88
2021/12/16 18:15:18;;;;;;;5.72;3.80;;;7.20;99.90;;;;;;5020642;28;20018;-91
2021/12/16 18:17:50;;;;;;;7.25;4.00;;;7.20;99.90;;;;;;5004471;28;20050;-90
2021/12/16 18:20:24;;;;;;;4.97;3.33;;;7.20;99.90;;;;;;5002487;28;20018;-89
2021/12/16 18:22:58;;;;;;;;;;;7.20;99.90;;;;;;4996921;28;20043;-91
2021/12/16 18:25:30;;;;;;;7.60;3.85;;;7.20;99.90;;;;;;4998959;28;19929;-90
2021/12/16 18:33:29;;;;;;;5.07;3.38;;;7.30;99.90;;;;;;5019249;28;20061;-91
2021/12/16 18:35:59;;;;;;;5.82;3.78;;;7.20;99.90;;;;;;5020131;28;20018;-87
2021/12/16 18:38:41;;;;;;;5.97;3.83;;;7.20;99.90;;;;;;5003538;28;20038;-89
2021/12/16 18:41:16;;;;;;;6.88;4.18;;;7.30;99.90;;;;;;5002204;28;20097;-91
2021/12/16 18:43:43;;;;;;;8.52;3.58;;;7.20;99.90;;;;;;4992825;28;20035;-90
2021/12/16 18:46:10;;;;;;;6.43;3.33;;;7.20;99.90;;;;;;4992050;28;20082;-90
2021/12/16 18:48:51;;;;;;;5.18;3.20;;;7.20;99.90;;;;;;5623298;23;20034;-90
2021/12/16 18:56:41;;;;;;;5.05;3.83;;;7.10;99.90;;;;;;4999380;28;20018;-90
2021/12/16 18:59:10;;;;;;;7.32;4.22;;;7.10;99.90;;;;;;4999574;28;20011;-90
2021/12/16 19:01:41;;;;;;;5.88;3.90;;;7.10;99.90;;;;;;4998061;28;20039;-90
2021/12/16 19:04:08;;;;;;;5.90;4.28;;;7.10;99.90;;;;;;4993506;28;20031;-91
2021/12/16 19:09:21;;;;;;;6.35;4.03;;;7.20;99.90;;;;;;5354928;23;20051;-91
2021/12/16 19:11:57;;;;;;;8.75;4.63;;;7.20;99.90;;;;;;4988781;28;20466;-91
2021/12/16 19:14:36;;;;;;;8.52;4.50;;;7.20;99.90;;;;;;5003574;28;20026;-91
2021/12/16 19:17:05;;;;;;;8.25;4.97;;;7.20;99.90;;;;;;5001299;28;20042;-90
2021/12/16 19:19:32;;;;;;;8.43;4.78;;;7.20;99.90;;;;;;4982173;28;20012;-90
2021/12/16 19:22:07;;;;;;;9.70;5.97;;;7.20;99.90;;;;;;4987006;28;20046;-89
2021/12/16 19:24:37;;;;;;;11.40;5.75;;;7.20;99.90;;;;;;5006033;28;20038;-91
2021/12/16 19:27:05;;;;;;;9.38;6.13;;;7.20;99.90;;;;;;5013764;23;20022;-86
2021/12/16 19:29:34;;;;;;;11.13;5.95;;;7.10;99.90;;;;;;4994908;28;20088;-86
2021/12/16 19:32:00;;;;;;;8.80;5.97;;;7.10;99.90;;;;;;5002009;28;20169;-87
2021/12/16 19:34:26;;;;;;;9.57;6.18;;;7.10;99.90;;;;;;4990851;28;20050;-87
2021/12/16 19:36:53;;;;;;;9.13;6.13;;;7.00;99.90;;;;;;4989935;28;20546;-86
2021/12/16 19:39:18;;;;;;;11.02;6.43;;;7.00;99.90;;;;;;4992739;28;20022;-88
2021/12/16 19:41:45;;;;;;;8.98;6.05;;;7.00;99.90;;;;;;4985812;28;20061;-87
2021/12/16 19:44:14;;;;;;;13.27;7.18;;;7.00;99.90;;;;;;4993484;28;20094;-86
2021/12/16 19:46:46;;;;;;;9.40;6.20;;;7.00;99.90;;;;;;4991299;28;20038;-89
2021/12/16 19:49:15;;;;;;;9.45;6.00;;;7.00;99.90;;;;;;4997194;28;20086;-87
2021/12/16 19:51:42;;;;;;;8.85;6.15;;;7.00;99.90;;;;;;4999416;28;20037;-87
2021/12/16 19:54:09;;;;;;;10.73;6.10;;;7.00;99.90;;;;;;4991976;28;20035;-86
2021/12/16 19:56:37;;;;;;;9.15;6.10;;;7.10;99.90;;;;;;4989272;28;20058;-87
2021/12/16 19:59:04;;;;;;;11.32;6.88;;;7.10;99.90;;;;;;4985476;28;20090;-88
2021/12/16 20:01:32;;;;;;;12.10;6.53;;;7.10;99.90;;;;;;4999273;28;20034;-86
2021/12/16 20:04:04;;;;;;;10.20;6.53;;;7.10;99.90;;;;;;4999418;28;20517;-84
2021/12/16 20:06:33;;;;;;;10.88;6.88;;;7.10;99.90;;;;;;4999386;28;20038;-86
2021/12/16 20:09:04;;;;;;;10.75;6.60;;;7.10;99.90;;;;;;4999871;28;20006;-85
2021/12/16 20:11:35;;;;;;;10.82;7.15;;;7.10;99.90;;;;;;4999799;28;20050;-85
2021/12/16 20:14:01;;;;;;;13.48;7.78;;;7.10;99.90;;;;;;4998796;28;20107;-86
2021/12/16 20:16:37;;;;;;;13.45;8.38;;;7.10;99.90;;;;;;4982779;28;20019;-86
2021/12/16 20:19:07;;;;;;;11.35;7.20;;;7.10;99.90;;;;;;4999017;28;20025;-86
2021/12/16 20:21:40;;;;;;;13.07;7.35;;;7.20;99.90;;;;;;4999524;28;20041;-85
2021/12/16 20:24:08;;;;;;;13.43;8.25;;;7.20;99.90;;;;;;4995033;28;20031;-84
2021/12/16 20:26:46;;;;;;;13.77;8.05;;;7.20;99.90;;;;;;4992558;28;20115;-84
2021/12/16 20:29:20;;;;;;;15.55;8.40;;;7.20;99.90;;;;;;4999218;28;20033;-84
2021/12/16 20:31:50;;;;;;;12.98;7.63;;;7.20;99.90;;;;;;4995370;28;20011;-85
2021/12/16 20:34:34;;;;;;;14.35;8.32;;;7.20;99.90;;;;;;4999815;28;20027;-84
2021/12/16 20:37:03;;;;;;;14.05;8.50;;;7.20;99.90;;;;;;5016004;28;20051;-86
2021/12/16 20:39:33;;;;;;;11.88;7.78;;;7.20;99.90;;;;;;4999007;28;20042;-84
2021/12/16 20:42:09;;;;;;;13.38;8.38;;;7.20;99.90;;;;;;4998299;28;20018;-84
2021/12/16 20:44:40;;;;;;;14.75;9.20;;;7.20;99.90;;;;;;4997892;28;20041;-84